createdAt,value
2023-06-29T00:01:59.809Z,20.57
2023-06-29T00:04:27.358Z,19.87
2023-06-29T00:06:55.556Z,21.40
2023-06-29T00:09:23.534Z,18.30
2023-06-29T00:11:50.701Z,19.73
2023-06-29T00:14:17.779Z,18.53
2023-06-29T00:16:44.651Z,19.40
2023-06-29T00:19:12.858Z,16.63
2023-06-29T00:21:40.086Z,18.07
2023-06-29T00:24:07.359Z,21.80
2023-06-29T00:26:34.419Z,18.23
2023-06-29T00:29:01.362Z,20.90
2023-06-29T00:31:28.273Z,21.07
2023-06-29T00:33:55.153Z,22.77
2023-06-29T00:36:22.076Z,18.30
2023-06-29T00:38:49.395Z,20.17
2023-06-29T00:41:16.330Z,18.83
2023-06-29T00:43:46.783Z,19.47
2023-06-29T00:46:16.345Z,21.53
2023-06-29T00:48:43.114Z,21.70
2023-06-29T00:51:09.975Z,21.53
2023-06-29T00:53:38.297Z,23.47
2023-06-29T00:56:05.716Z,20.80
2023-06-29T00:58:32.486Z,21.30
2023-06-29T01:01:02.074Z,20.77
2023-06-29T01:03:29.405Z,22.97
2023-06-29T01:06:01.382Z,19.70
2023-06-29T01:08:37.781Z,21.53
2023-06-29T01:11:06.868Z,22.50
2023-06-29T01:13:37.879Z,19.60
2023-06-29T01:16:06.286Z,22.83
2023-06-29T01:18:34.663Z,20.17
2023-06-29T01:21:03.186Z,21.50
2023-06-29T01:23:38.066Z,19.07
2023-06-29T01:26:06.598Z,22.77
2023-06-29T01:28:39.660Z,24.73
2023-06-29T01:31:06.754Z,20.97
2023-06-29T01:33:36.965Z,21.60
2023-06-29T01:36:16.379Z,21.73
2023-06-29T01:38:52.877Z,19.90
2023-06-29T01:41:21.204Z,23.43
2023-06-29T01:43:52.984Z,21.20
2023-06-29T01:46:23.689Z,19.73
2023-06-29T01:48:52.140Z,22.10
2023-06-29T01:51:18.928Z,21.27
2023-06-29T01:53:45.720Z,22.27
2023-06-29T01:56:12.612Z,19.57
2023-06-29T01:58:39.459Z,25.57
2023-06-29T02:01:07.382Z,24.03
2023-06-29T02:03:34.337Z,23.73
2023-06-29T02:06:01.308Z,18.87
2023-06-29T02:08:28.093Z,20.13
2023-06-29T02:10:54.866Z,25.03
2023-06-29T02:13:23.659Z,22.70
2023-06-29T02:15:53.451Z,25.20
2023-06-29T02:18:20.374Z,23.63
2023-06-29T02:20:47.263Z,26.47
2023-06-29T02:23:14.033Z,25.80
2023-06-29T02:25:40.884Z,25.40
2023-06-29T02:28:07.771Z,26.87
2023-06-29T02:30:34.707Z,25.93
2023-06-29T02:33:01.691Z,24.60
2023-06-29T02:35:28.468Z,28.93
2023-06-29T02:37:55.294Z,25.30
2023-06-29T02:40:22.199Z,25.53
2023-06-29T02:42:48.902Z,25.80
2023-06-29T02:45:15.737Z,30.27
2023-06-29T02:47:42.599Z,26.33
2023-06-29T02:50:10.072Z,22.03
2023-06-29T02:52:36.806Z,25.57
2023-06-29T02:55:03.989Z,24.73
2023-06-29T02:57:30.678Z,28.30
2023-06-29T02:59:57.500Z,27.10
2023-06-29T03:02:24.581Z,24.90
2023-06-29T03:04:51.400Z,27.80
2023-06-29T03:07:18.319Z,27.97
2023-06-29T03:09:45.140Z,27.03
2023-06-29T03:12:12.454Z,29.97
2023-06-29T03:14:39.408Z,28.67
2023-06-29T03:17:06.751Z,26.47
2023-06-29T03:19:33.671Z,28.33
2023-06-29T03:22:00.510Z,26.27
2023-06-29T03:24:27.357Z,29.87
2023-06-29T03:26:54.264Z,28.63
2023-06-29T03:29:21.085Z,27.43
2023-06-29T03:31:47.895Z,28.40
2023-06-29T03:34:14.760Z,26.83
2023-06-29T03:36:41.609Z,28.07
2023-06-29T03:39:08.432Z,28.27
2023-06-29T03:41:35.202Z,28.50
2023-06-29T03:44:01.956Z,29.97
2023-06-29T03:46:28.810Z,27.23
2023-06-29T03:48:55.604Z,30.90
2023-06-29T03:51:22.398Z,29.63
2023-06-29T03:53:49.167Z,28.10
2023-06-29T03:56:15.985Z,26.40
2023-06-29T03:58:42.747Z,28.10
2023-06-29T04:01:09.735Z,33.57
2023-06-29T04:03:36.470Z,32.63
2023-06-29T04:06:03.276Z,27.83
2023-06-29T04:08:30.041Z,31.07
2023-06-29T04:10:56.798Z,30.07
2023-06-29T04:13:23.523Z,29.97
2023-06-29T04:15:50.412Z,30.20
2023-06-29T04:18:17.176Z,33.03
2023-06-29T04:20:44.009Z,28.33
2023-06-29T04:23:16.225Z,28.93
2023-06-29T04:25:43.825Z,29.37
2023-06-29T04:28:12.745Z,33.00
2023-06-29T04:30:43.740Z,31.33
2023-06-29T04:33:16.241Z,34.73
2023-06-29T04:35:45.008Z,28.57
2023-06-29T04:38:14.317Z,30.93
2023-06-29T04:40:41.398Z,32.30
2023-06-29T04:43:08.338Z,29.53
2023-06-29T04:45:35.332Z,29.17
2023-06-29T04:48:02.726Z,31.30
2023-06-29T04:50:36.358Z,26.00
2023-06-29T04:53:13.518Z,30.20
2023-06-29T04:55:40.813Z,33.00
2023-06-29T04:58:07.780Z,33.10
2023-06-29T05:00:34.685Z,31.90
2023-06-29T05:03:01.696Z,31.23
2023-06-29T05:05:28.572Z,32.40
2023-06-29T05:07:55.388Z,28.03
2023-06-29T05:10:22.458Z,38.70
2023-06-29T05:12:49.269Z,33.30
2023-06-29T05:15:16.644Z,32.20
2023-06-29T05:17:44.914Z,28.90
2023-06-29T05:20:14.806Z,34.00
2023-06-29T05:22:41.828Z,34.60
2023-06-29T05:25:09.169Z,29.73
2023-06-29T05:27:36.149Z,32.47
2023-06-29T05:30:04.035Z,33.47
2023-06-29T05:32:31.596Z,35.27
2023-06-29T05:34:58.458Z,30.43
2023-06-29T05:37:25.932Z,31.63
2023-06-29T05:39:52.796Z,34.93
2023-06-29T05:42:50.966Z,31.20
2023-06-29T05:45:21.150Z,33.80
2023-06-29T05:47:47.973Z,37.50
2023-06-29T05:50:17.861Z,35.07
2023-06-29T05:52:45.198Z,29.77
2023-06-29T05:55:12.114Z,31.73
2023-06-29T05:57:39.461Z,35.47
2023-06-29T06:00:13.728Z,29.73
2023-06-29T06:02:41.456Z,29.37
2023-06-29T06:05:08.860Z,30.57
2023-06-29T06:07:36.648Z,33.27
2023-06-29T06:10:06.391Z,31.93
2023-06-29T06:12:33.462Z,28.70
2023-06-29T06:15:00.310Z,31.27
2023-06-29T06:17:27.138Z,28.97
2023-06-29T06:19:55.560Z,30.13
2023-06-29T06:22:22.342Z,30.27
2023-06-29T06:24:49.078Z,32.60
2023-06-29T06:27:15.963Z,27.93
2023-06-29T06:29:42.757Z,29.53
2023-06-29T06:32:09.760Z,29.57
2023-06-29T06:34:36.562Z,27.10
2023-06-29T06:37:03.436Z,29.10
2023-06-29T06:39:33.899Z,25.50
2023-06-29T06:42:01.277Z,27.63
2023-06-29T06:44:28.200Z,29.57
2023-06-29T06:46:55.299Z,27.87
2023-06-29T06:49:22.128Z,29.33
2023-06-29T06:51:49.162Z,27.40
2023-06-29T06:54:22.752Z,24.00
2023-06-29T06:56:49.690Z,26.00
2023-06-29T06:59:16.814Z,23.23
2023-06-29T07:01:43.764Z,22.30
2023-06-29T07:04:10.765Z,23.70
2023-06-29T07:06:38.842Z,21.23
2023-06-29T07:09:05.922Z,23.37
2023-06-29T07:11:32.746Z,23.73
2023-06-29T07:13:59.542Z,24.27
2023-06-29T07:16:26.629Z,23.70
2023-06-29T07:21:38.513Z,22.07
2023-06-29T07:24:08.240Z,23.03
2023-06-29T07:26:36.053Z,21.60
2023-06-29T07:29:05.570Z,23.80
2023-06-29T07:31:32.649Z,22.90
2023-06-29T07:33:59.564Z,20.10
2023-06-29T07:36:27.950Z,24.60
2023-06-29T07:38:56.251Z,19.55
2023-06-29T07:41:23.637Z,19.73
2023-06-29T07:44:04.042Z,24.58
2023-06-29T07:46:33.047Z,21.50
2023-06-29T07:49:00.358Z,20.63
2023-06-29T07:51:33.388Z,18.85
2023-06-29T07:54:05.190Z,21.85
2023-06-29T07:59:05.846Z,23.42
2023-06-29T08:01:36.092Z,20.80
2023-06-29T08:04:04.781Z,20.17
2023-06-29T08:09:05.383Z,24.20
2023-06-29T08:11:32.274Z,21.67
2023-06-29T08:13:59.133Z,21.63
2023-06-29T08:16:26.043Z,21.55
2023-06-29T08:18:53.040Z,22.45
2023-06-29T08:21:19.922Z,23.27
2023-06-29T08:23:48.060Z,24.60
2023-06-29T08:26:14.930Z,22.05
2023-06-29T08:28:41.862Z,20.25
2023-06-29T08:31:08.909Z,21.58
2023-06-29T08:33:35.909Z,24.08
2023-06-29T08:36:02.732Z,22.90
2023-06-29T08:38:29.553Z,21.65
2023-06-29T08:40:59.490Z,22.95
2023-06-29T08:43:26.417Z,22.65
2023-06-29T08:45:53.614Z,22.67
2023-06-29T08:48:22.068Z,22.33
2023-06-29T08:51:02.132Z,22.67
2023-06-29T08:53:29.460Z,23.00
2023-06-29T08:55:58.876Z,21.35
2023-06-29T08:58:35.096Z,23.10
2023-06-29T09:01:02.730Z,22.02
2023-06-29T09:03:30.501Z,25.08
2023-06-29T09:05:57.910Z,22.80
2023-06-29T09:08:25.228Z,20.85
2023-06-29T09:10:52.120Z,25.17
2023-06-29T09:13:21.734Z,21.60
2023-06-29T09:15:49.728Z,22.60
2023-06-29T09:18:16.721Z,22.20
2023-06-29T09:20:45.274Z,21.85
2023-06-29T09:23:14.161Z,21.83
2023-06-29T09:26:07.913Z,21.13
2023-06-29T09:28:36.754Z,20.08
2023-06-29T09:31:13.467Z,20.48
2023-06-29T09:33:40.376Z,20.80
2023-06-29T09:36:10.505Z,19.20
2023-06-29T09:38:38.706Z,21.63
2023-06-29T09:41:07.871Z,21.77
2023-06-29T09:43:34.823Z,22.17
2023-06-29T09:46:08.908Z,21.23
2023-06-29T09:51:22.795Z,21.55
2023-06-29T09:53:49.896Z,21.90
2023-06-29T09:56:20.390Z,22.23
2023-06-29T09:58:47.705Z,23.27
2023-06-29T10:01:17.265Z,21.42
2023-06-29T10:03:45.187Z,18.77
2023-06-29T10:06:20.921Z,21.15
2023-06-29T10:08:54.772Z,23.85
2023-06-29T10:11:23.958Z,23.25
2023-06-29T10:14:01.294Z,24.73
2023-06-29T10:16:30.504Z,26.63
2023-06-29T10:19:10.620Z,28.48
2023-06-29T10:21:37.578Z,24.02
2023-06-29T10:24:05.786Z,25.15
2023-06-29T10:26:33.335Z,25.38
2023-06-29T10:29:00.251Z,25.52
2023-06-29T10:31:34.136Z,24.60
2023-06-29T10:34:01.624Z,24.58
2023-06-29T10:36:46.064Z,28.15
2023-06-29T10:39:42.003Z,26.02
2023-06-29T10:42:23.900Z,26.30
2023-06-29T10:44:51.042Z,25.83
2023-06-29T10:47:30.594Z,29.52
2023-06-29T10:50:12.844Z,29.33
2023-06-29T10:52:39.906Z,27.55
2023-06-29T10:55:16.961Z,26.85
2023-06-29T10:57:48.187Z,28.80
2023-06-29T11:00:16.890Z,28.08
2023-06-29T11:02:44.670Z,35.50
2023-06-29T11:05:15.445Z,30.80
2023-06-29T11:07:43.470Z,26.80
2023-06-29T11:10:11.359Z,29.75
2023-06-29T11:12:42.842Z,30.52
2023-06-29T11:18:07.035Z,28.15
2023-06-29T11:20:37.160Z,27.30
2023-06-29T11:23:04.048Z,30.85
2023-06-29T11:25:33.431Z,30.98
2023-06-29T11:28:00.353Z,30.35
2023-06-29T11:30:27.477Z,27.30
2023-06-29T11:32:55.086Z,31.08
2023-06-29T11:35:22.887Z,30.75
2023-06-29T11:37:51.725Z,29.45
2023-06-29T11:40:24.573Z,31.90
2023-06-29T11:42:55.452Z,30.67
2023-06-29T11:45:22.932Z,32.85
2023-06-29T11:47:56.940Z,30.67
2023-06-29T11:50:26.744Z,33.70
2023-06-29T11:53:06.755Z,31.63
2023-06-29T11:55:33.579Z,32.20
2023-06-29T11:58:00.981Z,35.30
2023-06-29T12:00:35.090Z,32.08
2023-06-29T12:03:09.596Z,31.20
2023-06-29T12:05:41.381Z,32.35
2023-06-29T12:08:12.730Z,33.85
2023-06-29T12:10:40.408Z,34.08
2023-06-29T12:13:10.851Z,35.13
2023-06-29T12:15:37.905Z,29.95
2023-06-29T12:18:09.925Z,31.27
2023-06-29T12:20:42.141Z,38.40
2023-06-29T12:23:14.136Z,37.10
2023-06-29T12:25:49.193Z,33.85
2023-06-29T12:28:16.246Z,36.47
2023-06-29T12:30:44.286Z,36.35
2023-06-29T12:33:14.619Z,34.33
2023-06-29T12:35:43.266Z,37.65
2023-06-29T12:38:11.043Z,40.20
2023-06-29T12:40:39.343Z,40.85
2023-06-29T12:43:09.226Z,39.45
2023-06-29T12:45:36.350Z,40.65
2023-06-29T12:48:04.903Z,39.03
2023-06-29T12:50:31.919Z,39.30
2023-06-29T12:52:58.836Z,41.70
2023-06-29T12:55:26.006Z,38.78
2023-06-29T12:57:52.814Z,29.10
2023-06-29T13:00:19.890Z,27.23
2023-06-29T13:02:53.058Z,24.30
2023-06-29T13:05:19.921Z,24.05
2023-06-29T13:07:46.785Z,24.88
2023-06-29T13:10:13.714Z,25.58
2023-06-29T13:12:42.057Z,22.63
2023-06-29T13:15:09.368Z,23.50
2023-06-29T13:17:36.295Z,27.00
2023-06-29T13:20:18.810Z,22.38
2023-06-29T13:22:45.915Z,21.50
2023-06-29T13:25:13.040Z,24.25
2023-06-29T13:27:41.716Z,22.88
2023-06-29T13:30:09.581Z,27.75
2023-06-29T13:32:36.565Z,24.75
2023-06-29T13:35:04.874Z,20.98
2023-06-29T13:37:31.953Z,25.40
2023-06-29T13:39:58.695Z,21.38
2023-06-29T13:42:25.395Z,22.60
2023-06-29T13:44:52.172Z,22.17
2023-06-29T13:47:20.727Z,27.83
2023-06-29T13:49:47.961Z,21.95
2023-06-29T13:52:15.130Z,20.50
2023-06-29T13:54:41.981Z,20.98
2023-06-29T13:57:08.758Z,22.38
2023-06-29T13:59:35.642Z,23.27
2023-06-29T14:02:02.689Z,22.77
2023-06-29T14:04:29.489Z,23.23
2023-06-29T14:06:56.268Z,25.15
2023-06-29T14:09:23.103Z,21.05
2023-06-29T14:11:52.717Z,21.17
2023-06-29T14:14:19.530Z,23.30
2023-06-29T14:16:46.623Z,21.67
2023-06-29T14:19:13.512Z,25.42
2023-06-29T14:21:40.393Z,25.20
2023-06-29T14:24:07.122Z,21.80
2023-06-29T14:26:33.894Z,23.25
2023-06-29T14:29:00.768Z,23.75
2023-06-29T14:31:27.775Z,21.42
2023-06-29T14:33:55.893Z,22.48
2023-06-29T14:36:22.818Z,20.90
2023-06-29T14:38:50.605Z,19.45
2023-06-29T14:41:18.752Z,18.77
2023-06-29T14:43:45.485Z,19.95
2023-06-29T14:46:12.424Z,20.80
2023-06-29T14:48:39.213Z,19.97
2023-06-29T14:51:06.045Z,18.47
2023-06-29T14:53:32.789Z,21.50
2023-06-29T14:56:10.827Z,18.03
2023-06-29T14:58:37.958Z,18.17
2023-06-29T15:01:05.192Z,19.87
2023-06-29T15:03:32.214Z,18.33
2023-06-29T15:05:59.177Z,18.53
2023-06-29T15:08:27.278Z,21.73
2023-06-29T15:10:54.059Z,19.77
2023-06-29T15:13:20.900Z,20.20
2023-06-29T15:15:48.190Z,20.30
2023-06-29T15:18:15.300Z,18.65
2023-06-29T15:20:42.146Z,18.58
2023-06-29T15:23:09.046Z,21.90
2023-06-29T15:25:43.344Z,20.17
2023-06-29T15:28:12.320Z,21.08
2023-06-29T15:30:51.768Z,21.10
2023-06-29T15:33:22.292Z,21.83
2023-06-29T15:35:49.733Z,21.63
2023-06-29T15:38:20.153Z,21.27
2023-06-29T15:40:48.945Z,23.60
2023-06-29T15:43:15.881Z,22.48
2023-06-29T15:45:43.087Z,23.02
2023-06-29T15:48:10.195Z,21.70
2023-06-29T15:50:37.114Z,21.10
2023-06-29T15:53:09.393Z,20.67
2023-06-29T15:55:39.305Z,19.90
2023-06-29T15:58:06.103Z,22.98
2023-06-29T16:00:32.850Z,24.45
2023-06-29T16:02:59.745Z,20.98
2023-06-29T16:05:26.600Z,21.05
2023-06-29T16:07:56.554Z,23.65
2023-06-29T16:10:25.846Z,20.67
2023-06-29T16:12:52.632Z,20.85
2023-06-29T16:15:19.454Z,20.80
2023-06-29T16:17:46.479Z,18.92
2023-06-29T16:20:13.399Z,16.77
2023-06-29T16:22:49.318Z,14.73
2023-06-29T16:25:16.307Z,16.83
2023-06-29T16:27:46.121Z,18.15
2023-06-29T16:30:13.586Z,19.35
2023-06-29T16:32:40.487Z,15.38
2023-06-29T16:35:07.675Z,17.90
2023-06-29T16:37:34.559Z,13.73
2023-06-29T16:40:01.423Z,13.10
2023-06-29T16:42:28.163Z,11.35
2023-06-29T16:44:54.950Z,7.63
2023-06-29T16:47:21.746Z,8.57
2023-06-29T16:49:48.511Z,6.18
2023-06-29T16:52:16.300Z,6.05
2023-06-29T16:54:43.056Z,6.05
2023-06-29T16:57:12.688Z,4.72
2023-06-29T16:59:40.044Z,4.65
2023-06-29T17:02:07.566Z,5.65
2023-06-29T17:04:34.650Z,3.72
2023-06-29T17:07:01.421Z,3.63
2023-06-29T17:09:28.216Z,4.15
2023-06-29T17:11:55.085Z,4.30
2023-06-29T17:14:21.979Z,4.75
2023-06-29T17:16:49.054Z,5.37
2023-06-29T17:19:16.055Z,5.10
2023-06-29T17:21:42.778Z,3.93
2023-06-29T17:24:09.569Z,3.67
2023-06-29T17:26:36.516Z,2.93
2023-06-29T17:29:03.440Z,5.13
2023-06-29T17:31:31.925Z,2.90
2023-06-29T17:33:58.829Z,3.23
2023-06-29T17:36:25.779Z,4.30
2023-06-29T17:38:56.107Z,4.83
2023-06-29T17:41:22.850Z,3.87
2023-06-29T17:43:49.813Z,4.27
2023-06-29T17:46:20.028Z,5.30
2023-06-29T17:48:47.261Z,3.83
2023-06-29T17:51:19.201Z,4.13
2023-06-29T17:53:47.373Z,4.43
2023-06-29T17:56:17.317Z,2.80
2023-06-29T17:58:44.938Z,2.43
2023-06-29T18:01:12.409Z,3.17
2023-06-29T18:03:40.580Z,2.30
2023-06-29T18:06:08.145Z,1.70
2023-06-29T18:08:35.011Z,1.50
2023-06-29T18:11:02.258Z,3.87
2023-06-29T18:13:28.996Z,1.77
2023-06-29T18:15:56.041Z,2.93
2023-06-29T18:18:22.905Z,2.07
2023-06-29T18:20:49.652Z,1.63
2023-06-29T18:23:16.462Z,1.43
2023-06-29T18:25:43.454Z,1.30
2023-06-29T18:28:10.582Z,2.10
2023-06-29T18:30:37.433Z,1.90
2023-06-29T18:33:04.717Z,1.90
2023-06-29T18:35:31.466Z,2.50
2023-06-29T18:37:58.362Z,1.70
2023-06-29T18:40:28.058Z,2.95
2023-06-29T18:42:55.184Z,3.43
2023-06-29T18:45:24.203Z,4.03
2023-06-29T18:47:53.811Z,2.50
2023-06-29T18:50:20.672Z,4.70
2023-06-29T18:52:47.590Z,3.27
2023-06-29T18:55:14.480Z,2.30
2023-06-29T18:57:44.462Z,3.83
2023-06-29T19:00:14.543Z,2.73
2023-06-29T19:02:43.502Z,3.47
2023-06-29T19:05:11.146Z,3.77
2023-06-29T19:07:38.380Z,3.10
2023-06-29T19:10:06.042Z,5.33
2023-06-29T19:12:32.817Z,2.53
2023-06-29T19:14:59.644Z,3.23
2023-06-29T19:17:26.638Z,5.17
2023-06-29T19:19:53.621Z,4.53
2023-06-29T19:22:20.508Z,4.27
2023-06-29T19:24:47.484Z,3.90
2023-06-29T19:27:14.227Z,5.60
2023-06-29T19:29:41.012Z,3.70
2023-06-29T19:32:11.300Z,3.57
2023-06-29T19:34:38.207Z,5.47
2023-06-29T19:37:05.316Z,4.50
2023-06-29T19:39:32.237Z,8.27
2023-06-29T19:41:59.060Z,4.80
2023-06-29T19:44:25.939Z,10.43
2023-06-29T19:46:52.786Z,10.37
2023-06-29T19:49:20.254Z,6.03
2023-06-29T19:51:47.088Z,4.30
2023-06-29T19:54:13.885Z,4.27
2023-06-29T19:56:40.814Z,3.17
2023-06-29T19:59:07.662Z,4.20
2023-06-29T20:01:34.537Z,5.27
2023-06-29T20:04:01.401Z,3.63
2023-06-29T20:06:28.973Z,3.00
2023-06-29T20:08:55.989Z,4.47
2023-06-29T20:11:23.894Z,4.97
2023-06-29T20:13:51.278Z,4.53
2023-06-29T20:16:18.196Z,6.77
2023-06-29T20:18:45.129Z,5.00
2023-06-29T20:21:12.903Z,5.20
2023-06-29T20:23:39.813Z,5.43
2023-06-29T20:26:06.757Z,3.33
2023-06-29T20:28:33.900Z,5.50
2023-06-29T20:31:00.768Z,5.40
2023-06-29T20:33:40.944Z,12.30
2023-06-29T20:36:07.975Z,4.93
2023-06-29T20:38:37.578Z,6.43
2023-06-29T20:41:04.446Z,3.53
2023-06-29T20:43:31.312Z,4.43
2023-06-29T20:45:58.135Z,3.80
2023-06-29T20:48:25.325Z,5.10
2023-06-29T20:51:07.294Z,4.27
2023-06-29T20:53:43.705Z,9.30
2023-06-29T20:56:10.429Z,3.50
2023-06-29T20:58:37.893Z,3.70
2023-06-29T21:01:07.066Z,5.97
2023-06-29T21:03:38.844Z,7.33
2023-06-29T21:06:05.866Z,3.70
2023-06-29T21:08:32.617Z,6.67
2023-06-29T21:10:59.441Z,3.53
2023-06-29T21:13:26.684Z,6.40
2023-06-29T21:15:59.861Z,4.00
2023-06-29T21:18:28.100Z,4.90
2023-06-29T21:20:55.450Z,9.63
2023-06-29T21:23:22.472Z,9.87
2023-06-29T21:25:49.597Z,6.73
2023-06-29T21:28:16.545Z,7.13
2023-06-29T21:30:44.091Z,6.27
2023-06-29T21:33:11.174Z,5.13
2023-06-29T21:35:38.446Z,6.43
2023-06-29T21:38:05.508Z,6.90
2023-06-29T21:40:32.331Z,6.17
2023-06-29T21:42:59.093Z,8.53
2023-06-29T21:45:28.020Z,9.47
2023-06-29T21:47:55.296Z,7.77
2023-06-29T21:50:22.507Z,8.87
2023-06-29T21:52:49.353Z,8.33
2023-06-29T21:55:16.191Z,6.07
2023-06-29T21:57:43.035Z,6.63
2023-06-29T22:00:13.060Z,6.90
2023-06-29T22:02:40.735Z,5.77
2023-06-29T22:05:07.816Z,6.37
2023-06-29T22:07:34.689Z,9.57
2023-06-29T22:10:01.546Z,4.77
2023-06-29T22:12:29.085Z,8.10
2023-06-29T22:14:56.660Z,5.13
2023-06-29T22:17:24.000Z,12.40
2023-06-29T22:20:16.971Z,8.00
2023-06-29T22:22:44.223Z,7.27
2023-06-29T22:25:11.042Z,6.23
2023-06-29T22:27:37.977Z,7.77
2023-06-29T22:30:05.240Z,8.70
2023-06-29T22:32:32.478Z,8.33
2023-06-29T22:34:59.350Z,9.93
2023-06-29T22:37:26.196Z,6.13
